Otagawa — JD3046 — position and weather

sailwx.info

Track history (hours):
 
Tides and Currents Weather Stations Pressure Air Temp Water Temp Dewpoint Dewpoint Depression Visibility Wind Speed Wind Dir Waves Ship Positions

Otagawa

Last reported at 2018-Jan-12 13:03 UTC. Time now 2018-Jan-19 11:35 UTC.
Position N 41°39' E 141°21'.

Length 70 m; draft 4.5 m.

Type: Cargo ship. MMSI: 431001328.

Date/timePositionNaut miles runAvg speedWind from/ knotsBaromVisibWave heightAir tempDewpointWater temp
2018-Jan-12 13:03N 41°39' E 141°21'1 9.3
2018-Jan-12 12:58N 41°38' E 141°21'5 9.9
2018-Jan-12 12:30N 41°34' E 141°24'5 8.8
2018-Jan-12 11:58N 41°30' E 141°28'4 8.1
2018-Jan-12 11:30N 41°27' E 141°30'810.8
2018-Jan-12 10:44N 41°18' E 141°30'311.2
2018-Jan-12 10:29N 41°16' E 141°29'510.7
2018-Jan-12 10:00N 41°10' E 141°29'610.5
2018-Jan-12 09:28N 41°05' E 141°28'510.7
2018-Jan-12 08:59N 40°60' E 141°27'611.0
2018-Jan-12 08:28N 40°54' E 141°27'  
2018-Jan-09 22:43N 34°51' E 139°46'4 7.7
2018-Jan-09 22:14N 34°54' E 139°44'3 8.8
2018-Jan-09 21:57N 34°56' E 139°44'3 7.7
2018-Jan-09 21:30N 34°60' E 139°44'4 8.5
2018-Jan-09 21:00N 35°04' E 139°45'510.0
2018-Jan-09 20:30N 35°09' E 139°46'510.4
2018-Jan-09 20:01N 35°14' E 139°47'510.8
2018-Jan-09 19:31N 35°19' E 139°44'510.5
2018-Jan-09 19:01N 35°24' E 139°43'4 7.4
2018-Jan-09 18:31N 35°28' E 139°42'0 0.0
2018-Jan-09 18:01N 35°28' E 139°42'0 0.0
2018-Jan-09 17:31N 35°28' E 139°42'0 0.0
2018-Jan-09 17:01N 35°28' E 139°42'0 0.0
2018-Jan-09 16:31N 35°28' E 139°42'0 0.0
2018-Jan-09 16:01N 35°28' E 139°42'3 5.6
2018-Jan-09 15:31N 35°25' E 139°42'1 2.6
2018-Jan-09 15:01N 35°24' E 139°41'0 0.0
2018-Jan-09 14:31N 35°24' E 139°41'0 0.0
2018-Jan-09 14:01N 35°24' E 139°41'0 0.0
2018-Jan-09 13:31N 35°24' E 139°41'0 0.2
2018-Jan-09 13:00N 35°24' E 139°41'1 2.1
2018-Jan-09 12:29N 35°23' E 139°40'0 0.1
2018-Jan-09 11:59N 35°23' E 139°40'0 0.1
2018-Jan-09 11:29N 35°23' E 139°40'0 0.0
2018-Jan-09 10:59N 35°23' E 139°40'0 0.1
2018-Jan-09 10:29N 35°23' E 139°40'0 0.1
2018-Jan-09 09:59N 35°23' E 139°40'0 0.1
2018-Jan-09 09:29N 35°23' E 139°40'0 0.0
2018-Jan-09 08:59N 35°23' E 139°40'0 0.0
2018-Jan-09 08:29N 35°23' E 139°40'0 0.0
2018-Jan-09 07:59N 35°23' E 139°40'0 0.0
2018-Jan-09 07:29N 35°23' E 139°40'0 0.1
2018-Jan-09 06:59N 35°23' E 139°40'0 0.1
2018-Jan-09 06:29N 35°23' E 139°40'0 0.1
2018-Jan-09 05:59N 35°23' E 139°40'0 0.1
2018-Jan-09 05:29N 35°23' E 139°40'0 0.0
2018-Jan-09 04:59N 35°23' E 139°40'0 0.6
2018-Jan-09 04:30N 35°23' E 139°40'0 0.1
2018-Jan-09 03:59N 35°23' E 139°40'0 0.1
2018-Jan-09 03:29N 35°23' E 139°40'0 0.1
2018-Jan-09 02:59N 35°23' E 139°40'0 0.1
2018-Jan-09 02:30N 35°23' E 139°40'2 4.5
2018-Jan-09 02:01N 35°24' E 139°42'5 9.1
2018-Jan-09 01:30N 35°28' E 139°39'0 0.7
2018-Jan-09 01:00N 35°29' E 139°39'0 0.0
2018-Jan-09 00:30N 35°29' E 139°39'0 0.0
2018-Jan-08 23:59N 35°29' E 139°39'0 0.0
2018-Jan-08 23:29N 35°29' E 139°39'0 0.0
2018-Jan-08 22:59N 35°29' E 139°39'0 0.0
2018-Jan-08 22:29N 35°29' E 139°39'0 0.0
2018-Jan-08 21:59N 35°29' E 139°39'0 0.0
2018-Jan-08 21:29N 35°29' E 139°39'0 0.0
2018-Jan-08 20:59N 35°29' E 139°39'0 0.0
2018-Jan-08 20:29N 35°29' E 139°39'0 0.0
2018-Jan-08 19:59N 35°29' E 139°39'0 0.0
2018-Jan-08 19:29N 35°29' E 139°39'0 0.0
2018-Jan-08 18:59N 35°29' E 139°39'0 0.0
2018-Jan-08 18:29N 35°29' E 139°39'0 0.0
2018-Jan-08 17:59N 35°29' E 139°39'0 0.0
2018-Jan-08 17:29N 35°29' E 139°39'0 0.0
2018-Jan-08 16:59N 35°29' E 139°39'0 0.0
2018-Jan-08 16:29N 35°29' E 139°39'0 0.0
2018-Jan-08 15:59N 35°29' E 139°39'0 0.0
2018-Jan-08 15:29N 35°29' E 139°39'0 0.0
2018-Jan-08 14:59N 35°29' E 139°39'0 0.0
2018-Jan-08 14:29N 35°29' E 139°39'0 0.0
2018-Jan-08 13:59N 35°29' E 139°39'0 0.0
2018-Jan-08 13:29N 35°29' E 139°39'0 0.0
2018-Jan-08 12:59N 35°29' E 139°39'0 0.0
2018-Jan-08 12:29N 35°29' E 139°39'0 0.0
2018-Jan-08 11:59N 35°29' E 139°39'0 0.0
2018-Jan-08 11:29N 35°29' E 139°39'0 0.0
2018-Jan-08 10:59N 35°29' E 139°39'0 0.0
2018-Jan-08 10:29N 35°29' E 139°39'0 0.0
2018-Jan-08 09:59N 35°29' E 139°39'0 0.0
2018-Jan-08 09:29N 35°29' E 139°39'0 0.0
2018-Jan-08 08:59N 35°29' E 139°39'0 0.0
2018-Jan-08 08:29N 35°29' E 139°39'0 0.0
2018-Jan-08 07:59N 35°29' E 139°39'0 0.0
2018-Jan-08 07:29N 35°29' E 139°39'0 0.0
2018-Jan-08 06:59N 35°29' E 139°39'0 0.0
2018-Jan-08 06:29N 35°29' E 139°39'0 0.0
2018-Jan-08 05:59N 35°29' E 139°39'0 0.0
2018-Jan-08 05:29N 35°29' E 139°39'0 0.0
2018-Jan-08 04:59N 35°29' E 139°39'0 0.0
2018-Jan-08 04:29N 35°29' E 139°39'0 0.0
2018-Jan-08 03:59N 35°29' E 139°39'0 0.0
2018-Jan-08 03:29N 35°29' E 139°39'0 0.0
2018-Jan-08 02:59N 35°29' E 139°39'0 0.0
2018-Jan-08 02:29N 35°29' E 139°39'0 0.0
2018-Jan-08 01:59N 35°29' E 139°39'0 0.0
2018-Jan-08 01:30N 35°29' E 139°39'0 0.7
2018-Jan-08 01:00N 35°28' E 139°39'4 8.2
2018-Jan-08 00:30N 35°26' E 139°43'510.7
2018-Jan-08 00:01N 35°20' E 139°43'510.9
2018-Jan-07 23:31N 35°15' E 139°47'510.4
2018-Jan-07 23:00N 35°10' E 139°46'510.4
2018-Jan-07 22:30N 35°05' E 139°45'510.6
2018-Jan-07 22:00N 34°60' E 139°44'611.0
2018-Jan-07 21:26N 34°54' E 139°47'10 9.5
2018-Jan-07 20:24N 34°55' E 139°59'4 9.6
2018-Jan-07 20:00N 34°56' E 140°03'8 9.9
2018-Jan-07 19:11N 35°01' E 140°11'37210.4
2018-Jan-06 07:29N 41°06' E 141°37'1012.2
2018-Jan-06 06:41N 41°16' E 141°37'812.2
2018-Jan-06 06:04N 41°24' E 141°37'1112.4
2018-Jan-06 05:08N 41°35' E 141°35'412.7
2018-Jan-06 04:51N 41°39' E 141°35'21 1.0
2018-Jan-05 08:28N 41°18' E 141°30'510.9
2018-Jan-05 08:00N 41°13' E 141°30'610.4
2018-Jan-05 07:28N 41°08' E 141°30'  
Track history (hours):
 
Tides and Currents Weather Stations Pressure Air Temp Water Temp Dewpoint Dewpoint Depression Visibility Wind Speed Wind Dir Waves Ship Positions

Otagawa

Last reported at 2018-Jan-12 13:03 UTC. Time now 2018-Jan-19 11:35 UTC.
Position N 41°39' E 141°21'.

Length 70 m; draft 4.5 m.

Type: Cargo ship. MMSI: 431001328.

Date/timePositionNaut miles runAvg speedWind from/ knotsBaromVisibWave heightAir tempDewpointWater temp
2018-Jan-12 13:03N 41°39' E 141°21'1 9.3
2018-Jan-12 12:58N 41°38' E 141°21'5 9.9
2018-Jan-12 12:30N 41°34' E 141°24'5 8.8
2018-Jan-12 11:58N 41°30' E 141°28'4 8.1
2018-Jan-12 11:30N 41°27' E 141°30'810.8
2018-Jan-12 10:44N 41°18' E 141°30'311.2
2018-Jan-12 10:29N 41°16' E 141°29'510.7
2018-Jan-12 10:00N 41°10' E 141°29'610.5
2018-Jan-12 09:28N 41°05' E 141°28'510.7
2018-Jan-12 08:59N 40°60' E 141°27'611.0
2018-Jan-12 08:28N 40°54' E 141°27'  
2018-Jan-09 22:43N 34°51' E 139°46'4 7.7
2018-Jan-09 22:14N 34°54' E 139°44'3 8.8
2018-Jan-09 21:57N 34°56' E 139°44'3 7.7
2018-Jan-09 21:30N 34°60' E 139°44'4 8.5
2018-Jan-09 21:00N 35°04' E 139°45'510.0
2018-Jan-09 20:30N 35°09' E 139°46'510.4
2018-Jan-09 20:01N 35°14' E 139°47'510.8
2018-Jan-09 19:31N 35°19' E 139°44'510.5
2018-Jan-09 19:01N 35°24' E 139°43'4 7.4
2018-Jan-09 18:31N 35°28' E 139°42'0 0.0
2018-Jan-09 18:01N 35°28' E 139°42'0 0.0
2018-Jan-09 17:31N 35°28' E 139°42'0 0.0
2018-Jan-09 17:01N 35°28' E 139°42'0 0.0
2018-Jan-09 16:31N 35°28' E 139°42'0 0.0
2018-Jan-09 16:01N 35°28' E 139°42'3 5.6
2018-Jan-09 15:31N 35°25' E 139°42'1 2.6
2018-Jan-09 15:01N 35°24' E 139°41'0 0.0
2018-Jan-09 14:31N 35°24' E 139°41'0 0.0
2018-Jan-09 14:01N 35°24' E 139°41'0 0.0
2018-Jan-09 13:31N 35°24' E 139°41'0 0.2
2018-Jan-09 13:00N 35°24' E 139°41'1 2.1
2018-Jan-09 12:29N 35°23' E 139°40'0 0.1
2018-Jan-09 11:59N 35°23' E 139°40'0 0.1
2018-Jan-09 11:29N 35°23' E 139°40'0 0.0
2018-Jan-09 10:59N 35°23' E 139°40'0 0.1
2018-Jan-09 10:29N 35°23' E 139°40'0 0.1
2018-Jan-09 09:59N 35°23' E 139°40'0 0.1
2018-Jan-09 09:29N 35°23' E 139°40'0 0.0
2018-Jan-09 08:59N 35°23' E 139°40'0 0.0
2018-Jan-09 08:29N 35°23' E 139°40'0 0.0
2018-Jan-09 07:59N 35°23' E 139°40'0 0.0
2018-Jan-09 07:29N 35°23' E 139°40'0 0.1
2018-Jan-09 06:59N 35°23' E 139°40'0 0.1
2018-Jan-09 06:29N 35°23' E 139°40'0 0.1
2018-Jan-09 05:59N 35°23' E 139°40'0 0.1
2018-Jan-09 05:29N 35°23' E 139°40'0 0.0
2018-Jan-09 04:59N 35°23' E 139°40'0 0.6
2018-Jan-09 04:30N 35°23' E 139°40'0 0.1
2018-Jan-09 03:59N 35°23' E 139°40'0 0.1
2018-Jan-09 03:29N 35°23' E 139°40'0 0.1
2018-Jan-09 02:59N 35°23' E 139°40'0 0.1
2018-Jan-09 02:30N 35°23' E 139°40'2 4.5
2018-Jan-09 02:01N 35°24' E 139°42'5 9.1
2018-Jan-09 01:30N 35°28' E 139°39'0 0.7
2018-Jan-09 01:00N 35°29' E 139°39'0 0.0
2018-Jan-09 00:30N 35°29' E 139°39'0 0.0
2018-Jan-08 23:59N 35°29' E 139°39'0 0.0
2018-Jan-08 23:29N 35°29' E 139°39'0 0.0
2018-Jan-08 22:59N 35°29' E 139°39'0 0.0
2018-Jan-08 22:29N 35°29' E 139°39'0 0.0
2018-Jan-08 21:59N 35°29' E 139°39'0 0.0
2018-Jan-08 21:29N 35°29' E 139°39'0 0.0
2018-Jan-08 20:59N 35°29' E 139°39'0 0.0
2018-Jan-08 20:29N 35°29' E 139°39'0 0.0
2018-Jan-08 19:59N 35°29' E 139°39'0 0.0
2018-Jan-08 19:29N 35°29' E 139°39'0 0.0
2018-Jan-08 18:59N 35°29' E 139°39'0 0.0
2018-Jan-08 18:29N 35°29' E 139°39'0 0.0
2018-Jan-08 17:59N 35°29' E 139°39'0 0.0
2018-Jan-08 17:29N 35°29' E 139°39'0 0.0
2018-Jan-08 16:59N 35°29' E 139°39'0 0.0
2018-Jan-08 16:29N 35°29' E 139°39'0 0.0
2018-Jan-08 15:59N 35°29' E 139°39'0 0.0
2018-Jan-08 15:29N 35°29' E 139°39'0 0.0
2018-Jan-08 14:59N 35°29' E 139°39'0 0.0
2018-Jan-08 14:29N 35°29' E 139°39'0 0.0
2018-Jan-08 13:59N 35°29' E 139°39'0 0.0
2018-Jan-08 13:29N 35°29' E 139°39'0 0.0
2018-Jan-08 12:59N 35°29' E 139°39'0 0.0
2018-Jan-08 12:29N 35°29' E 139°39'0 0.0
2018-Jan-08 11:59N 35°29' E 139°39'0 0.0
2018-Jan-08 11:29N 35°29' E 139°39'0 0.0
2018-Jan-08 10:59N 35°29' E 139°39'0 0.0
2018-Jan-08 10:29N 35°29' E 139°39'0 0.0
2018-Jan-08 09:59N 35°29' E 139°39'0 0.0
2018-Jan-08 09:29N 35°29' E 139°39'0 0.0
2018-Jan-08 08:59N 35°29' E 139°39'0 0.0
2018-Jan-08 08:29N 35°29' E 139°39'0 0.0
2018-Jan-08 07:59N 35°29' E 139°39'0 0.0
2018-Jan-08 07:29N 35°29' E 139°39'0 0.0
2018-Jan-08 06:59N 35°29' E 139°39'0 0.0
2018-Jan-08 06:29N 35°29' E 139°39'0 0.0
2018-Jan-08 05:59N 35°29' E 139°39'0 0.0
2018-Jan-08 05:29N 35°29' E 139°39'0 0.0
2018-Jan-08 04:59N 35°29' E 139°39'0 0.0
2018-Jan-08 04:29N 35°29' E 139°39'0 0.0
2018-Jan-08 03:59N 35°29' E 139°39'0 0.0
2018-Jan-08 03:29N 35°29' E 139°39'0 0.0
2018-Jan-08 02:59N 35°29' E 139°39'0 0.0
2018-Jan-08 02:29N 35°29' E 139°39'0 0.0
2018-Jan-08 01:59N 35°29' E 139°39'0 0.0
2018-Jan-08 01:30N 35°29' E 139°39'0 0.7
2018-Jan-08 01:00N 35°28' E 139°39'4 8.2
2018-Jan-08 00:30N 35°26' E 139°43'510.7
2018-Jan-08 00:01N 35°20' E 139°43'510.9
2018-Jan-07 23:31N 35°15' E 139°47'510.4
2018-Jan-07 23:00N 35°10' E 139°46'510.4
2018-Jan-07 22:30N 35°05' E 139°45'510.6
2018-Jan-07 22:00N 34°60' E 139°44'611.0
2018-Jan-07 21:26N 34°54' E 139°47'10 9.5
2018-Jan-07 20:24N 34°55' E 139°59'4 9.6
2018-Jan-07 20:00N 34°56' E 140°03'8 9.9
2018-Jan-07 19:11N 35°01' E 140°11'37210.4
2018-Jan-06 07:29N 41°06' E 141°37'1012.2
2018-Jan-06 06:41N 41°16' E 141°37'812.2
2018-Jan-06 06:04N 41°24' E 141°37'1112.4
2018-Jan-06 05:08N 41°35' E 141°35'412.7
2018-Jan-06 04:51N 41°39' E 141°35'21 1.0
2018-Jan-05 08:28N 41°18' E 141°30'510.9
2018-Jan-05 08:00N 41°13' E 141°30'610.4
2018-Jan-05 07:28N 41°08' E 141°30'  

Dump ship's entire track history